createdAt,value
2023-03-07T00:01:32.346Z,100363.06
2023-03-07T00:04:00.749Z,100361.08
2023-03-07T00:06:30.407Z,100361.32
2023-03-07T00:08:59.892Z,100362.25
2023-03-07T00:11:30.419Z,100362.52
2023-03-07T00:13:59.482Z,100363.22
2023-03-07T00:16:27.670Z,100361.71
2023-03-07T00:18:57.167Z,100361.89
2023-03-07T00:21:27.494Z,100358.25
2023-03-07T00:23:55.598Z,100354.90
2023-03-07T00:26:24.464Z,100355.88
2023-03-07T00:28:55.771Z,100357.23
2023-03-07T00:31:24.459Z,100355.17
2023-03-07T00:33:54.402Z,100352.98
2023-03-07T00:36:23.533Z,100350.81
2023-03-07T00:38:55.252Z,100354.16
2023-03-07T00:41:27.653Z,100352.91
2023-03-07T00:43:55.795Z,100348.27
2023-03-07T00:46:24.480Z,100348.58
2023-03-07T00:48:53.329Z,100349.20
2023-03-07T00:51:28.713Z,100350.39
2023-03-07T00:53:57.949Z,100350.42
2023-03-07T00:56:26.883Z,100353.05
2023-03-07T00:58:55.617Z,100352.99
2023-03-07T01:01:24.856Z,100351.13
2023-03-07T01:03:53.994Z,100348.77
2023-03-07T01:06:25.570Z,100346.13
2023-03-07T01:08:56.749Z,100348.38
2023-03-07T01:11:27.355Z,100345.59
2023-03-07T01:13:57.454Z,100343.20
2023-03-07T01:16:28.107Z,100339.64
2023-03-07T01:18:58.024Z,100336.73
2023-03-07T01:21:30.395Z,100335.01
2023-03-07T01:23:59.809Z,100333.23
2023-03-07T01:26:31.194Z,100332.77
2023-03-07T01:29:01.789Z,100330.66
2023-03-07T01:31:32.780Z,100327.06
2023-03-07T01:34:03.434Z,100326.39
2023-03-07T01:36:34.981Z,100325.05
2023-03-07T01:39:08.216Z,100327.16
2023-03-07T01:41:39.646Z,100324.11
2023-03-07T01:44:17.839Z,100324.95
2023-03-07T01:46:50.670Z,100326.05
2023-03-07T01:49:29.330Z,100325.02
2023-03-07T01:52:12.127Z,100320.73
2023-03-07T01:55:00.296Z,100318.98
2023-03-07T01:57:33.356Z,100309.95
2023-03-07T02:00:08.677Z,100312.20
2023-03-07T02:02:45.787Z,100312.74
2023-03-07T02:05:50.363Z,100313.02
2023-03-07T02:08:19.099Z,100315.19
2023-03-07T02:10:53.572Z,100314.03
2023-03-07T02:13:22.492Z,100310.38
2023-03-07T02:15:58.576Z,100307.36
2023-03-07T02:18:33.142Z,100304.88
2023-03-07T02:21:23.369Z,100302.86
2023-03-07T02:24:05.385Z,100305.34
2023-03-07T02:26:51.877Z,100303.74
2023-03-07T02:29:24.447Z,100299.63
2023-03-07T02:31:53.165Z,100295.11
2023-03-07T02:34:28.858Z,100295.29
2023-03-07T02:37:14.130Z,100295.95
2023-03-07T02:39:46.608Z,100299.67
2023-03-07T02:42:22.506Z,100295.44
2023-03-07T02:45:00.805Z,100295.66
2023-03-07T02:47:34.968Z,100292.45
2023-03-07T02:50:04.130Z,100291.67
2023-03-07T02:52:33.247Z,100291.27
2023-03-07T02:55:01.383Z,100291.23
2023-03-07T02:57:34.008Z,100292.71
2023-03-07T03:00:07.562Z,100290.54
2023-03-07T03:02:35.919Z,100288.54
2023-03-07T03:05:10.068Z,100289.41
2023-03-07T03:07:38.988Z,100284.36
2023-03-07T03:10:07.772Z,100285.15
2023-03-07T03:12:37.598Z,100283.69
2023-03-07T03:15:08.478Z,100282.84
2023-03-07T03:17:37.464Z,100284.29
2023-03-07T03:20:08.089Z,100283.64
2023-03-07T03:22:41.456Z,100287.45
2023-03-07T03:25:11.531Z,100279.72
2023-03-07T03:27:41.112Z,100275.23
2023-03-07T03:30:11.425Z,100273.67
2023-03-07T03:32:40.785Z,100271.13
2023-03-07T03:35:09.931Z,100270.14
2023-03-07T03:37:38.444Z,100271.40
2023-03-07T03:40:14.737Z,100268.23
2023-03-07T03:42:44.884Z,100268.52
2023-03-07T03:45:15.594Z,100266.52
2023-03-07T03:47:43.745Z,100264.02
2023-03-07T03:50:17.492Z,100263.79
2023-03-07T03:52:47.533Z,100263.39
2023-03-07T03:55:16.286Z,100264.66
2023-03-07T03:57:45.632Z,100264.64
2023-03-07T04:00:15.052Z,100265.27
2023-03-07T04:02:43.831Z,100264.89
2023-03-07T04:05:13.380Z,100264.34
2023-03-07T04:07:41.940Z,100265.21
2023-03-07T04:10:10.940Z,100262.00
2023-03-07T04:12:41.750Z,100259.63
2023-03-07T04:15:10.319Z,100259.97
2023-03-07T04:17:42.111Z,100261.36
2023-03-07T04:20:17.734Z,100265.48
2023-03-07T04:22:47.298Z,100268.70
2023-03-07T04:25:15.731Z,100266.96
2023-03-07T04:27:44.384Z,100270.56
2023-03-07T04:30:13.160Z,100272.19
2023-03-07T04:32:43.003Z,100271.25
2023-03-07T04:35:11.197Z,100271.66
2023-03-07T04:37:39.776Z,100274.01
2023-03-07T04:40:08.886Z,100273.81
2023-03-07T04:42:38.122Z,100272.05
2023-03-07T04:45:07.180Z,100273.36
2023-03-07T04:47:35.900Z,100272.11
2023-03-07T04:50:05.929Z,100273.23
2023-03-07T04:52:35.658Z,100270.73
2023-03-07T04:55:04.361Z,100271.71
2023-03-07T04:57:32.906Z,100271.05
2023-03-07T05:00:03.348Z,100267.38
2023-03-07T05:02:31.862Z,100268.39
2023-03-07T05:05:03.902Z,100266.99
2023-03-07T05:07:33.454Z,100269.07
2023-03-07T05:10:02.027Z,100274.68
2023-03-07T05:12:33.406Z,100272.69
2023-03-07T05:15:01.726Z,100271.56
2023-03-07T05:17:30.891Z,100273.23
2023-03-07T05:20:02.962Z,100273.58
2023-03-07T05:22:42.994Z,100268.95
2023-03-07T05:25:13.120Z,100265.11
2023-03-07T05:27:41.946Z,100264.95
2023-03-07T05:30:12.974Z,100270.46
2023-03-07T05:32:41.725Z,100269.90
2023-03-07T05:35:12.569Z,100268.09
2023-03-07T05:37:42.598Z,100267.75
2023-03-07T05:40:12.526Z,100270.98
2023-03-07T05:42:43.947Z,100271.39
2023-03-07T05:45:13.681Z,100279.26
2023-03-07T05:47:43.806Z,100277.18
2023-03-07T05:50:14.099Z,100280.44
2023-03-07T05:52:43.313Z,100279.39
2023-03-07T05:55:11.922Z,100280.65
2023-03-07T05:57:41.050Z,100281.77
2023-03-07T06:00:11.574Z,100277.79
2023-03-07T06:02:47.156Z,100278.31
2023-03-07T06:05:16.849Z,100274.50
2023-03-07T06:07:50.261Z,100274.25
2023-03-07T06:10:18.920Z,100274.55
2023-03-07T06:12:56.396Z,100274.05
2023-03-07T06:15:27.186Z,100281.96
2023-03-07T06:18:00.775Z,100278.61
2023-03-07T06:20:29.136Z,100281.39
2023-03-07T06:22:58.130Z,100278.81
2023-03-07T06:25:26.787Z,100276.39
2023-03-07T06:27:59.791Z,100275.46
2023-03-07T06:30:28.760Z,100271.96
2023-03-07T06:32:57.055Z,100270.28
2023-03-07T06:35:32.012Z,100273.45
2023-03-07T06:38:00.449Z,100269.45
2023-03-07T06:40:28.628Z,100266.63
2023-03-07T06:42:56.857Z,100261.20
2023-03-07T06:45:25.321Z,100263.24
2023-03-07T06:48:00.382Z,100255.73
2023-03-07T06:50:35.121Z,100257.66
2023-03-07T06:53:05.187Z,100255.08
2023-03-07T06:55:34.860Z,100254.53
2023-03-07T06:58:03.995Z,100259.46
2023-03-07T07:00:32.538Z,100265.76
2023-03-07T07:03:01.134Z,100272.70
2023-03-07T07:05:29.630Z,100274.21
2023-03-07T07:07:58.008Z,100278.60
2023-03-07T07:10:26.976Z,100273.85
2023-03-07T07:12:56.857Z,100270.28
2023-03-07T07:15:31.279Z,100260.21
2023-03-07T07:18:02.242Z,100258.88
2023-03-07T07:20:36.508Z,100261.48
2023-03-07T07:23:05.529Z,100262.20
2023-03-07T07:25:34.486Z,100260.46
2023-03-07T07:28:03.337Z,100260.48
2023-03-07T07:30:32.631Z,100255.63
2023-03-07T07:33:03.560Z,100251.74
2023-03-07T07:35:32.638Z,100248.70
2023-03-07T07:38:03.712Z,100249.17
2023-03-07T07:40:33.049Z,100249.74
2023-03-07T07:43:01.870Z,100249.52
2023-03-07T07:45:49.454Z,100244.58
2023-03-07T07:48:21.549Z,100249.66
2023-03-07T07:50:49.896Z,100250.68
2023-03-07T07:53:18.403Z,100251.05
2023-03-07T07:55:49.161Z,100250.92
2023-03-07T07:58:20.904Z,100250.57
2023-03-07T08:00:49.876Z,100250.18
2023-03-07T08:03:18.949Z,100241.79
2023-03-07T08:05:48.630Z,100240.82
2023-03-07T08:08:18.657Z,100244.23
2023-03-07T08:10:47.137Z,100241.04
2023-03-07T08:13:18.204Z,100247.10
2023-03-07T08:15:48.863Z,100242.16
2023-03-07T08:18:18.565Z,100243.93
2023-03-07T08:20:48.147Z,100243.73
2023-03-07T08:23:16.407Z,100242.19
2023-03-07T08:25:45.095Z,100243.33
2023-03-07T08:28:15.804Z,100235.35
2023-03-07T08:30:44.475Z,100232.38
2023-03-07T08:33:14.406Z,100234.42
2023-03-07T08:35:44.251Z,100236.10
2023-03-07T08:38:12.765Z,100234.29
2023-03-07T08:40:41.176Z,100237.48
2023-03-07T08:43:10.593Z,100236.30
2023-03-07T08:45:41.774Z,100233.98
2023-03-07T08:48:11.332Z,100230.61
2023-03-07T08:50:39.605Z,100228.75
2023-03-07T08:53:08.658Z,100226.93
2023-03-07T08:55:36.951Z,100230.63
2023-03-07T08:58:06.563Z,100227.75
2023-03-07T09:00:35.689Z,100232.06
2023-03-07T09:03:04.516Z,100230.55
2023-03-07T09:05:32.960Z,100225.10
2023-03-07T09:08:02.141Z,100225.81
2023-03-07T09:10:32.454Z,100222.63
2023-03-07T09:13:01.336Z,100220.25
2023-03-07T09:15:30.035Z,100222.71
2023-03-07T09:17:58.690Z,100224.08
2023-03-07T09:20:27.071Z,100222.55
2023-03-07T09:22:55.354Z,100220.62
2023-03-07T09:25:24.871Z,100220.85
2023-03-07T09:27:54.517Z,100218.77
2023-03-07T09:30:25.557Z,100214.20
2023-03-07T09:32:54.028Z,100212.52
2023-03-07T09:35:23.659Z,100213.16
2023-03-07T09:37:52.121Z,100206.61
2023-03-07T09:40:23.960Z,100206.60
2023-03-07T09:42:58.851Z,100199.13
2023-03-07T09:45:32.882Z,100200.36
2023-03-07T09:48:25.961Z,100193.52
2023-03-07T09:51:07.567Z,100193.64
2023-03-07T09:53:55.095Z,100186.55
2023-03-07T09:56:39.698Z,100179.81
2023-03-07T09:59:36.410Z,100172.39
2023-03-07T10:02:30.781Z,100167.81
2023-03-07T10:05:02.922Z,100164.89
2023-03-07T10:07:33.476Z,100155.39
2023-03-07T10:10:24.978Z,100155.17
2023-03-07T10:13:39.270Z,100144.02
2023-03-07T10:16:25.224Z,100141.05
2023-03-07T10:19:24.226Z,100138.55
2023-03-07T10:22:04.653Z,100137.41
2023-03-07T10:24:52.953Z,100129.16
2023-03-07T10:27:26.565Z,100126.59
2023-03-07T10:29:56.492Z,100122.76
2023-03-07T10:32:43.634Z,100121.23
2023-03-07T10:35:13.795Z,100118.89
2023-03-07T10:37:53.892Z,100114.73
2023-03-07T10:40:30.721Z,100112.35
2023-03-07T10:42:58.919Z,100112.36
2023-03-07T10:45:29.491Z,100100.36
2023-03-07T10:48:08.382Z,100098.42
2023-03-07T10:50:51.406Z,100090.55
2023-03-07T10:53:29.346Z,100082.67
2023-03-07T10:56:10.082Z,100082.73
2023-03-07T10:59:05.395Z,100078.02
2023-03-07T11:01:33.916Z,100075.41
2023-03-07T11:04:06.708Z,100073.29
2023-03-07T11:06:44.804Z,100069.14
2023-03-07T11:14:49.182Z,100050.66
2023-03-07T11:17:27.200Z,100044.83
2023-03-07T11:19:56.464Z,100041.81
2023-03-07T11:22:35.875Z,100042.95
2023-03-07T11:25:13.785Z,100039.50
2023-03-07T11:27:45.556Z,100037.62
2023-03-07T11:30:20.040Z,100036.89
2023-03-07T11:33:26.116Z,100036.84
2023-03-07T11:36:01.886Z,100038.81
2023-03-07T11:39:04.026Z,100038.00
2023-03-07T11:42:35.428Z,100040.41
2023-03-07T11:45:07.655Z,100035.71
2023-03-07T11:47:44.658Z,100040.21
2023-03-07T11:50:29.039Z,100039.28
2023-03-07T11:53:15.680Z,100040.66
2023-03-07T11:55:46.761Z,100041.60
2023-03-07T11:58:19.775Z,100040.58
2023-03-07T12:01:22.298Z,100039.75
2023-03-07T12:03:53.984Z,100033.53
2023-03-07T12:06:24.672Z,100032.02
2023-03-07T12:09:28.113Z,100029.73
2023-03-07T12:12:00.269Z,100027.83
2023-03-07T12:14:55.372Z,100026.21
2023-03-07T12:17:46.375Z,100023.31
2023-03-07T12:20:15.235Z,100015.19
2023-03-07T12:23:00.159Z,100018.88
2023-03-07T12:25:33.149Z,100015.95
2023-03-07T12:28:10.893Z,100016.32
2023-03-07T12:30:53.784Z,100013.69
2023-03-07T12:33:52.989Z,100013.63
2023-03-07T12:37:10.927Z,100012.81
2023-03-07T12:39:47.195Z,100008.87
2023-03-07T12:42:43.167Z,100008.02
2023-03-07T12:45:13.249Z,100003.73
2023-03-07T12:47:47.453Z,100003.17
2023-03-07T12:50:47.575Z,99996.39
2023-03-07T12:53:30.816Z,99993.77
2023-03-07T12:56:15.868Z,99995.83
2023-03-07T12:58:52.700Z,99995.05
2023-03-07T13:01:27.184Z,99998.30
2023-03-07T13:03:57.283Z,99995.39
2023-03-07T13:06:25.472Z,99986.70
2023-03-07T13:09:04.194Z,99983.50
2023-03-07T13:11:34.198Z,99985.88
2023-03-07T13:14:07.407Z,99986.71
2023-03-07T13:16:45.202Z,99989.13
2023-03-07T13:19:35.833Z,99991.23
2023-03-07T13:22:29.689Z,99990.36
2023-03-07T13:25:00.665Z,99985.71
2023-03-07T13:27:54.845Z,99985.55
2023-03-07T13:30:32.607Z,99981.73
2023-03-07T13:33:10.601Z,99982.67
2023-03-07T13:35:48.585Z,99978.95
2023-03-07T13:38:44.401Z,99969.45
2023-03-07T13:41:13.406Z,99966.61
2023-03-07T13:43:45.439Z,99959.65
2023-03-07T13:46:40.939Z,99956.08
2023-03-07T13:49:12.860Z,99954.67
2023-03-07T13:52:15.770Z,99954.58
2023-03-07T13:54:44.224Z,99948.75
2023-03-07T13:57:17.925Z,99946.31
2023-03-07T13:59:53.275Z,99948.95
2023-03-07T14:02:21.891Z,99947.40
2023-03-07T14:04:54.653Z,99945.45
2023-03-07T14:07:40.537Z,99946.15
2023-03-07T14:10:22.682Z,99942.27
2023-03-07T14:13:15.194Z,99941.09
2023-03-07T14:15:53.157Z,99943.45
2023-03-07T14:18:49.872Z,99946.17
2023-03-07T14:21:40.332Z,99944.55
2023-03-07T14:24:33.742Z,99941.36
2023-03-07T14:27:06.944Z,99940.06
2023-03-07T14:29:36.144Z,99942.98
2023-03-07T14:32:04.616Z,99939.21
2023-03-07T14:34:36.103Z,99939.77
2023-03-07T14:37:22.036Z,99938.00
2023-03-07T14:40:19.184Z,99945.83
2023-03-07T14:42:59.858Z,99933.29
2023-03-07T14:45:31.007Z,99929.77
2023-03-07T14:48:21.717Z,99931.27
2023-03-07T14:50:50.192Z,99936.69
2023-03-07T14:53:29.339Z,99937.58
2023-03-07T14:55:58.991Z,99943.58
2023-03-07T14:58:28.593Z,99952.98
2023-03-07T15:01:20.941Z,99933.52
2023-03-07T15:03:53.562Z,99939.36
2023-03-07T15:06:36.265Z,99939.08
2023-03-07T15:09:04.646Z,99946.27
2023-03-07T15:11:36.205Z,99953.31
2023-03-07T15:14:10.663Z,99947.27
2023-03-07T15:16:50.467Z,99947.85
2023-03-07T15:19:20.763Z,99956.88
2023-03-07T15:21:57.332Z,99953.45
2023-03-07T15:24:39.206Z,99954.36
2023-03-07T15:27:10.855Z,99950.58
2023-03-07T15:29:45.981Z,99953.86
2023-03-07T15:32:35.008Z,99956.02
2023-03-07T15:35:12.534Z,99953.70
2023-03-07T15:37:53.601Z,99946.48
2023-03-07T15:40:23.855Z,99942.83
2023-03-07T15:43:24.989Z,99950.34
2023-03-07T15:46:06.346Z,99952.72
2023-03-07T15:48:37.882Z,99964.15
2023-03-07T15:51:09.940Z,99959.14
2023-03-07T15:53:40.070Z,99961.94
2023-03-07T15:56:27.869Z,99965.08
2023-03-07T15:58:59.680Z,99972.47
2023-03-07T16:01:33.613Z,99973.43
2023-03-07T16:04:05.499Z,99975.14
2023-03-07T16:06:44.290Z,99973.67
2023-03-07T16:09:14.520Z,99976.15
2023-03-07T16:11:43.269Z,99982.16
2023-03-07T16:14:30.623Z,99988.27
2023-03-07T16:17:04.786Z,99985.77
2023-03-07T16:19:33.201Z,99994.42
2023-03-07T16:22:01.413Z,99994.20
2023-03-07T16:24:30.286Z,99993.20
2023-03-07T16:26:59.098Z,100004.34
2023-03-07T16:29:27.273Z,99990.33
2023-03-07T16:31:55.478Z,99984.48
2023-03-07T16:34:27.542Z,99982.84
2023-03-07T16:36:56.636Z,99993.28
2023-03-07T16:39:25.231Z,99996.75
2023-03-07T16:41:53.598Z,99999.36
2023-03-07T16:44:22.206Z,100001.66
2023-03-07T16:47:14.790Z,100002.25
2023-03-07T16:49:44.142Z,99998.40
2023-03-07T16:52:16.111Z,99999.73
2023-03-07T16:54:47.225Z,99995.48
2023-03-07T16:57:18.627Z,99993.96
2023-03-07T17:00:07.580Z,99998.27
2023-03-07T17:02:37.578Z,99998.67
2023-03-07T17:05:28.869Z,99993.45
2023-03-07T17:07:57.994Z,99993.70
2023-03-07T17:10:29.384Z,99993.67
2023-03-07T17:13:01.376Z,99997.84
2023-03-07T17:15:31.467Z,99999.20
2023-03-07T17:18:02.032Z,100004.84
2023-03-07T17:20:37.505Z,100007.84
2023-03-07T17:23:06.816Z,100004.77
2023-03-07T17:25:35.893Z,100010.06
2023-03-07T17:28:20.184Z,100012.11
2023-03-07T17:30:50.538Z,100006.98
2023-03-07T17:33:21.897Z,100008.45
2023-03-07T17:35:51.774Z,100010.95
2023-03-07T17:38:21.155Z,100013.77
2023-03-07T17:41:14.722Z,100013.85
2023-03-07T17:43:48.508Z,100014.84
2023-03-07T17:46:18.793Z,100017.48
2023-03-07T17:48:49.209Z,100018.62
2023-03-07T17:51:19.110Z,100021.23
2023-03-07T17:53:48.796Z,100019.03
2023-03-07T17:56:18.251Z,100016.95
2023-03-07T17:58:48.384Z,100017.67
2023-03-07T18:01:16.695Z,100014.55
2023-03-07T18:03:48.872Z,100013.58
2023-03-07T18:06:19.105Z,100011.63
2023-03-07T18:08:48.284Z,100010.98
2023-03-07T18:11:17.365Z,100005.87
2023-03-07T18:13:45.688Z,100003.44
2023-03-07T18:16:15.627Z,99998.69
2023-03-07T18:18:58.281Z,99999.58
2023-03-07T18:21:30.937Z,99997.32
2023-03-07T18:23:59.371Z,99998.73
2023-03-07T18:26:32.284Z,99998.55
2023-03-07T18:29:03.111Z,99997.61
2023-03-07T18:31:31.704Z,99997.98
2023-03-07T18:34:03.334Z,99997.63
2023-03-07T18:36:31.889Z,99997.71
2023-03-07T18:39:02.340Z,100001.23
2023-03-07T18:41:36.404Z,99999.34
2023-03-07T18:44:05.444Z,99993.67
2023-03-07T18:46:39.980Z,99987.52
2023-03-07T18:49:08.496Z,99983.01
2023-03-07T18:51:38.398Z,99976.17
2023-03-07T18:54:10.554Z,99984.69
2023-03-07T18:56:39.880Z,99986.58
2023-03-07T18:59:12.048Z,99988.30
2023-03-07T19:01:40.559Z,99987.98
2023-03-07T19:04:11.452Z,99986.36
2023-03-07T19:06:50.512Z,99983.66
2023-03-07T19:09:19.741Z,99985.13
2023-03-07T19:11:49.150Z,99984.45
2023-03-07T19:14:18.549Z,99979.39
2023-03-07T19:16:47.250Z,99982.10
2023-03-07T19:19:23.350Z,99985.81
2023-03-07T19:21:52.384Z,99988.00
2023-03-07T19:24:20.692Z,99987.35
2023-03-07T19:26:49.015Z,99991.10
2023-03-07T19:29:17.599Z,99988.98
2023-03-07T19:31:46.404Z,99994.31
2023-03-07T19:34:17.256Z,99997.64
2023-03-07T19:36:47.524Z,99997.90
2023-03-07T19:39:20.694Z,99993.23
2023-03-07T19:41:50.433Z,100002.30
2023-03-07T19:44:20.185Z,99997.31
2023-03-07T19:46:49.048Z,99997.31
2023-03-07T19:49:23.931Z,99994.58
2023-03-07T19:51:52.634Z,99999.44
2023-03-07T19:54:22.782Z,99995.16
2023-03-07T19:56:51.559Z,99998.21
2023-03-07T19:59:22.701Z,99997.14
2023-03-07T20:01:51.544Z,100000.23
2023-03-07T20:04:19.980Z,100002.50
2023-03-07T20:06:52.543Z,100005.34
2023-03-07T20:09:24.522Z,99998.95
2023-03-07T20:11:53.671Z,100001.20
2023-03-07T20:14:23.371Z,100003.11
2023-03-07T20:16:54.103Z,100006.91
2023-03-07T20:19:29.292Z,100010.06
2023-03-07T20:22:00.007Z,100014.73
2023-03-07T20:24:33.210Z,100017.64
2023-03-07T20:27:22.290Z,100019.69
2023-03-07T20:29:52.643Z,100023.30
2023-03-07T20:32:23.692Z,100025.42
2023-03-07T20:35:03.201Z,100024.55
2023-03-07T20:37:33.334Z,100028.10
2023-03-07T20:40:03.100Z,100035.06
2023-03-07T20:42:33.530Z,100033.92
2023-03-07T20:45:02.386Z,100037.75
2023-03-07T20:47:33.639Z,100042.34
2023-03-07T20:50:05.323Z,100039.82
2023-03-07T20:52:36.241Z,100042.48
2023-03-07T20:55:05.475Z,100040.14
2023-03-07T20:57:34.129Z,100043.99
2023-03-07T21:00:07.336Z,100041.07
2023-03-07T21:02:46.543Z,100041.23
2023-03-07T21:05:16.370Z,100042.33
2023-03-07T21:07:47.699Z,100040.42
2023-03-07T21:10:16.216Z,100046.27
2023-03-07T21:12:45.514Z,100056.02
2023-03-07T21:15:15.120Z,100063.73
2023-03-07T21:17:43.784Z,100056.68
2023-03-07T21:20:12.944Z,100062.64
2023-03-07T21:22:41.650Z,100063.60
2023-03-07T21:25:15.166Z,100068.45
2023-03-07T21:27:43.604Z,100073.52
2023-03-07T21:30:12.376Z,100071.36
2023-03-07T21:32:40.866Z,100072.09
2023-03-07T21:35:09.773Z,100077.25
2023-03-07T21:37:44.295Z,100077.06
2023-03-07T21:40:13.306Z,100076.84
2023-03-07T21:42:41.522Z,100080.11
2023-03-07T21:45:11.140Z,100086.65
2023-03-07T21:47:41.203Z,100092.83
2023-03-07T21:50:12.902Z,100094.37
2023-03-07T21:52:41.288Z,100097.37
2023-03-07T21:55:10.669Z,100099.17
2023-03-07T21:57:39.024Z,100092.69
2023-03-07T22:00:08.886Z,100087.76
2023-03-07T22:02:37.342Z,100087.01
2023-03-07T22:05:06.318Z,100095.13
2023-03-07T22:07:39.006Z,100097.60
2023-03-07T22:10:08.108Z,100092.65
2023-03-07T22:12:36.491Z,100101.52
2023-03-07T22:15:06.838Z,100104.77
2023-03-07T22:17:38.361Z,100108.30
2023-03-07T22:20:06.885Z,100106.69
2023-03-07T22:22:35.159Z,100107.89
2023-03-07T22:25:04.234Z,100101.17
2023-03-07T22:27:33.092Z,100099.06
2023-03-07T22:30:02.155Z,100105.30
2023-03-07T22:32:31.132Z,100105.73
2023-03-07T22:34:59.316Z,100104.48
2023-03-07T22:37:28.116Z,100099.33
2023-03-07T22:39:56.407Z,100099.91
2023-03-07T22:42:24.989Z,100106.43
2023-03-07T22:44:54.765Z,100109.91
2023-03-07T22:47:24.378Z,100114.60
2023-03-07T22:49:52.546Z,100115.48
2023-03-07T22:52:20.672Z,100116.42
2023-03-07T22:54:49.388Z,100110.87
2023-03-07T22:57:17.620Z,100108.66
2023-03-07T22:59:50.926Z,100111.36
2023-03-07T23:02:19.360Z,100114.67
2023-03-07T23:04:51.671Z,100114.80
2023-03-07T23:07:21.044Z,100111.23
2023-03-07T23:09:49.253Z,100115.59
2023-03-07T23:12:20.201Z,100118.59
2023-03-07T23:14:49.695Z,100121.66
2023-03-07T23:17:18.993Z,100118.33
2023-03-07T23:19:48.037Z,100115.02
2023-03-07T23:22:16.230Z,100118.38
2023-03-07T23:24:46.364Z,100114.36
2023-03-07T23:27:15.034Z,100114.11
2023-03-07T23:31:36.704Z,100118.83
2023-03-07T23:34:21.504Z,100117.25
2023-03-07T23:36:57.414Z,100113.02
2023-03-07T23:39:25.925Z,100114.79
2023-03-07T23:41:54.128Z,100115.20
2023-03-07T23:44:22.845Z,100112.69
2023-03-07T23:46:51.041Z,100116.59
2023-03-07T23:49:19.132Z,100112.27
2023-03-07T23:51:47.807Z,100112.65
2023-03-07T23:54:16.330Z,100114.30
2023-03-07T23:56:46.320Z,100114.00
2023-03-07T23:59:16.454Z,100112.90
